Time;durP1;ratioP1;P1;durP2;ratioP2;P2;SDS_P1;SDS_P2;PMS_P1;PMS_P2;Temp;Humidity;BMP_temperature;BMP_pressure;BME280_temperature;BME280_humidity;BME280_pressure;Samples;Min_cycle;Max_cycle;Signal;HPM_P1;HPM_P2
2021/10/18 00:02:13;;;;;;;;;22.33;17.33;;;;;;;;4826843;29;54319;-82
2021/10/18 00:04:39;;;;;;;;;33.00;23.00;;;;;;;;4820476;29;53126;-79
2021/10/18 00:07:04;;;;;;;;;24.25;18.75;;;;;;;;4826909;29;45597;-80
2021/10/18 00:09:29;;;;;;;;;19.33;18.67;;;;;;;;4816135;29;46055;-79
2021/10/18 00:11:55;;;;;;;;;24.33;18.67;;;;;;;;4827925;29;45580;-79
2021/10/18 00:14:20;;;;;;;;;25.25;16.75;;;;;;;;4827583;29;46245;-80
2021/10/18 00:16:46;;;;;;;;;21.00;18.25;;;;;;;;4827307;29;45660;-79
2021/10/18 00:19:11;;;;;;;;;17.50;17.00;;;;;;;;4801168;29;47429;-79
2021/10/18 00:21:37;;;;;;;;;22.75;19.75;;;;;;;;4815017;29;45696;-80
2021/10/18 00:24:02;;;;;;;;;22.00;18.00;;;;;;;;4831120;29;45287;-79
2021/10/18 00:26:27;;;;;;;;;19.25;18.50;;;;;;;;4834678;29;101757;-80
2021/10/18 00:28:52;;;;;;;;;21.75;18.50;;;;;;;;4831780;29;45533;-79
2021/10/18 00:31:19;;;;;;;;;26.00;18.00;;;;;;;;4822004;29;53715;-79
2021/10/18 00:33:45;;;;;;;;;24.75;17.00;;;;;;;;4812171;29;45813;-79
2021/10/18 00:36:10;;;;;;;;;18.50;17.25;;;;;;;;4832885;29;45551;-79
2021/10/18 00:38:35;;;;;;;;;21.00;19.50;;;;;;;;4847109;29;41091;-79
2021/10/18 00:41:00;;;;;;;;;21.67;15.67;;;;;;;;4836005;29;45936;-80
2021/10/18 00:43:26;;;;;;;;;23.67;22.33;;;;;;;;4815550;29;45964;-79
2021/10/18 00:45:56;;;;;;;;;24.25;19.75;;;;;;;;4835807;29;46586;-81
2021/10/18 00:50:55;;;;;;;;;22.50;15.25;;;;;;;;4954904;23;45667;-79
2021/10/18 00:53:20;;;;;;;;;20.50;18.25;;;;;;;;4799019;29;45652;-79
2021/10/18 00:55:46;;;;;;;;;27.33;22.00;;;;;;;;4796751;29;45631;-78
2021/10/18 00:58:11;;;;;;;;;34.75;21.75;;;;;;;;4809832;29;45520;-78
2021/10/18 01:00:36;;;;;;;;;24.50;21.25;;;;;;;;4800799;29;45261;-78
2021/10/18 01:03:02;;;;;;;;;26.75;23.00;;;;;;;;4808602;29;39158;-79
2021/10/18 01:05:27;;;;;;;;;27.75;22.00;;;;;;;;4813795;29;45599;-78
2021/10/18 01:07:53;;;;;;;;;25.00;21.00;;;;;;;;4800502;29;45485;-79
2021/10/18 01:10:18;;;;;;;;;25.25;20.50;;;;;;;;4811737;29;45779;-78
2021/10/18 01:12:43;;;;;;;;;23.00;21.00;;;;;;;;4797802;29;45333;-78
2021/10/18 01:15:08;;;;;;;;;30.00;24.75;;;;;;;;4801567;29;45466;-78
2021/10/18 01:17:34;;;;;;;;;28.00;20.75;;;;;;;;4797418;29;46467;-79
2021/10/18 01:19:59;;;;;;;;;23.50;20.50;;;;;;;;4798065;29;47059;-78
2021/10/18 01:22:24;;;;;;;;;25.00;22.75;;;;;;;;4783027;29;45682;-78
2021/10/18 01:24:49;;;;;;;;;25.00;21.50;;;;;;;;4794939;29;49907;-78
2021/10/18 01:27:15;;;;;;;;;24.00;20.67;;;;;;;;4797079;29;64461;-78
2021/10/18 01:29:40;;;;;;;;;25.33;23.00;;;;;;;;4799720;29;45778;-78
2021/10/18 01:32:06;;;;;;;;;21.75;20.75;;;;;;;;4801649;29;45557;-79
2021/10/18 01:34:32;;;;;;;;;31.00;25.50;;;;;;;;4795337;29;105933;-78
2021/10/18 01:36:59;;;;;;;;;33.50;24.75;;;;;;;;4785705;29;47506;-78
2021/10/18 01:39:25;;;;;;;;;33.25;25.25;;;;;;;;4785416;29;108641;-79
2021/10/18 01:41:50;;;;;;;;;27.00;20.25;;;;;;;;4803713;29;44961;-79
2021/10/18 01:44:15;;;;;;;;;24.00;20.00;;;;;;;;4807472;29;44946;-78
2021/10/18 01:46:41;;;;;;;;;24.75;22.75;;;;;;;;4803645;29;45822;-78
2021/10/18 01:49:07;;;;;;;;;27.25;21.25;;;;;;;;4803123;29;50225;-78
2021/10/18 01:51:32;;;;;;;;;22.50;18.25;;;;;;;;4808567;29;45698;-78
2021/10/18 01:53:57;;;;;;;;;21.00;19.67;;;;;;;;4809250;29;45871;-78
2021/10/18 01:56:22;;;;;;;;;27.33;20.00;;;;;;;;4810962;29;45508;-77
2021/10/18 01:58:48;;;;;;;;;26.00;21.00;;;;;;;;4799805;29;47173;-77
2021/10/18 02:01:14;;;;;;;;;27.50;21.00;;;;;;;;4809481;29;45453;-78
2021/10/18 02:03:39;;;;;;;;;26.00;22.00;;;;;;;;4800928;29;51316;-79
2021/10/18 02:06:08;;;;;;;;;25.00;20.33;;;;;;;;4809723;29;46516;-78
2021/10/18 02:08:34;;;;;;;;;22.00;21.50;;;;;;;;4805715;29;45577;-78
2021/10/18 02:10:59;;;;;;;;;25.00;25.00;;;;;;;;4816510;29;47340;-78
2021/10/18 02:13:25;;;;;;;;;20.67;18.67;;;;;;;;4812714;29;45417;-78
2021/10/18 02:15:50;;;;;;;;;24.00;19.00;;;;;;;;4809870;29;45695;-79
2021/10/18 02:18:15;;;;;;;;;33.00;21.00;;;;;;;;4798253;29;45563;-78
2021/10/18 02:20:40;;;;;;;;;21.00;19.00;;;;;;;;4799575;29;45353;-78
2021/10/18 02:23:05;;;;;;;;;29.33;24.33;;;;;;;;4780452;29;309573;-78
2021/10/18 02:25:31;;;;;;;;;28.00;21.33;;;;;;;;4796802;29;46332;-78
2021/10/18 02:27:56;;;;;;;;;20.33;15.67;;;;;;;;4794356;29;48719;-78
2021/10/18 02:30:22;;;;;;;;;29.00;21.50;;;;;;;;4795260;29;46652;-78
2021/10/18 02:32:47;;;;;;;;;26.00;21.00;;;;;;;;4799497;29;45759;-78
2021/10/18 02:35:12;;;;;;;;;25.00;20.00;;;;;;;;4782597;29;48470;-78
2021/10/18 02:37:37;;;;;;;;;20.00;16.00;;;;;;;;4796580;29;45631;-77
2021/10/18 02:40:04;;;;;;;;;25.00;20.67;;;;;;;;4786661;29;45726;-78
2021/10/18 02:42:29;;;;;;;;;24.75;19.75;;;;;;;;4808178;29;45617;-77
2021/10/18 02:44:54;;;;;;;;;21.50;20.00;;;;;;;;4813013;29;45718;-79
2021/10/18 02:47:19;;;;;;;;;29.75;21.75;;;;;;;;4810364;29;45587;-77
2021/10/18 02:49:45;;;;;;;;;20.67;19.67;;;;;;;;4805149;29;45705;-77
2021/10/18 02:52:10;;;;;;;;;20.00;20.00;;;;;;;;4806351;29;86814;-78
2021/10/18 02:54:35;;;;;;;;;25.50;19.00;;;;;;;;4804836;29;45638;-79
2021/10/18 02:57:01;;;;;;;;;25.00;22.00;;;;;;;;4811838;29;42447;-78
2021/10/18 02:59:26;;;;;;;;;28.25;24.00;;;;;;;;4806480;29;77478;-77
2021/10/18 03:01:51;;;;;;;;;26.67;20.33;;;;;;;;4805889;29;44789;-78
2021/10/18 03:04:16;;;;;;;;;30.33;24.00;;;;;;;;4801526;29;46864;-78
2021/10/18 03:06:42;;;;;;;;;22.00;17.33;;;;;;;;4807814;29;45511;-77
2021/10/18 03:09:07;;;;;;;;;23.00;18.00;;;;;;;;4800077;29;45715;-78
2021/10/18 03:11:32;;;;;;;;;20.00;16.67;;;;;;;;4801566;29;45563;-78
2021/10/18 03:13:57;;;;;;;;;22.00;19.50;;;;;;;;4799015;29;85969;-78
2021/10/18 03:16:22;;;;;;;;;22.33;20.00;;;;;;;;4812788;29;44897;-78
2021/10/18 03:18:48;;;;;;;;;25.33;19.33;;;;;;;;4804680;29;45710;-78
2021/10/18 03:21:13;;;;;;;;;22.67;17.00;;;;;;;;4805319;29;49891;-77
2021/10/18 03:23:38;;;;;;;;;25.67;21.67;;;;;;;;4800166;29;45684;-79
2021/10/18 03:26:03;;;;;;;;;26.67;17.33;;;;;;;;4806600;29;45553;-78
2021/10/18 03:28:29;;;;;;;;;20.00;17.25;;;;;;;;4810527;29;45196;-78
2021/10/18 03:30:54;;;;;;;;;17.75;17.50;;;;;;;;4806438;29;72599;-78
2021/10/18 03:33:19;;;;;;;;;24.00;18.67;;;;;;;;4814163;29;42958;-77
2021/10/18 03:35:45;;;;;;;;;27.33;24.00;;;;;;;;4817075;29;46021;-78
2021/10/18 03:38:10;;;;;;;;;20.25;17.50;;;;;;;;4809581;29;45604;-78
2021/10/18 03:40:35;;;;;;;;;23.25;19.75;;;;;;;;4800201;29;45697;-79
2021/10/18 03:43:00;;;;;;;;;25.00;16.33;;;;;;;;4795659;29;349398;-79
2021/10/18 03:45:26;;;;;;;;;22.67;17.33;;;;;;;;4795673;29;426466;-78
2021/10/18 03:47:51;;;;;;;;;20.00;18.33;;;;;;;;4805070;29;45648;-78
2021/10/18 03:50:16;;;;;;;;;26.00;18.67;;;;;;;;4812467;29;45546;-79
2021/10/18 03:52:42;;;;;;;;;23.50;22.00;;;;;;;;4812587;29;45565;-79
2021/10/18 03:55:08;;;;;;;;;29.75;20.00;;;;;;;;4814924;29;42644;-78
2021/10/18 03:57:33;;;;;;;;;24.75;19.25;;;;;;;;4805887;29;45781;-78
2021/10/18 03:59:59;;;;;;;;;27.50;16.75;;;;;;;;4789617;29;432847;-78
2021/10/18 04:02:24;;;;;;;;;19.67;17.00;;;;;;;;4811858;29;42389;-78
2021/10/18 04:04:49;;;;;;;;;21.75;19.75;;;;;;;;4790495;29;45604;-78
2021/10/18 04:07:14;;;;;;;;;21.75;21.75;;;;;;;;4807228;29;45552;-78
2021/10/18 04:09:40;;;;;;;;;28.00;19.67;;;;;;;;4804376;29;78896;-78
2021/10/18 04:12:06;;;;;;;;;30.00;19.00;;;;;;;;4800257;29;46091;-78
2021/10/18 04:14:31;;;;;;;;;22.25;16.50;;;;;;;;4805398;29;45578;-78
2021/10/18 04:16:56;;;;;;;;;20.00;16.67;;;;;;;;4796936;29;45473;-78
2021/10/18 04:19:21;;;;;;;;;23.00;19.00;;;;;;;;4793566;29;203291;-78
2021/10/18 04:21:46;;;;;;;;;27.00;20.00;;;;;;;;4797810;29;45672;-79
2021/10/18 04:24:12;;;;;;;;;21.00;15.67;;;;;;;;4795445;29;45910;-78
2021/10/18 04:26:37;;;;;;;;;24.00;19.33;;;;;;;;4798288;29;45736;-78
2021/10/18 04:29:04;;;;;;;;;24.75;21.25;;;;;;;;4798777;29;53304;-79
2021/10/18 04:31:29;;;;;;;;;19.25;18.25;;;;;;;;4793918;29;61220;-78
2021/10/18 04:33:56;;;;;;;;;30.00;21.00;;;;;;;;4796866;29;45580;-78
2021/10/18 04:36:22;;;;;;;;;23.00;22.25;;;;;;;;4784858;29;45709;-78
2021/10/18 04:38:47;;;;;;;;;29.75;20.50;;;;;;;;4811171;29;46070;-77
2021/10/18 04:41:13;;;;;;;;;22.25;19.50;;;;;;;;4800823;29;49615;-79
2021/10/18 04:43:38;;;;;;;;;25.00;18.25;;;;;;;;4794498;29;45464;-78
2021/10/18 04:46:03;;;;;;;;;26.33;21.67;;;;;;;;4794188;29;45816;-78
2021/10/18 04:48:28;;;;;;;;;26.67;20.67;;;;;;;;4783174;29;47407;-79
2021/10/18 04:50:53;;;;;;;;;24.67;17.33;;;;;;;;4801297;29;46082;-77
2021/10/18 04:53:19;;;;;;;;;19.00;17.33;;;;;;;;4801186;29;44936;-78
2021/10/18 04:55:44;;;;;;;;;19.50;17.75;;;;;;;;4802906;29;45749;-79
2021/10/18 04:58:09;;;;;;;;;26.67;21.00;;;;;;;;4794399;29;45663;-80
2021/10/18 05:00:41;;;;;;;;;20.00;17.33;;;;;;;;4794631;29;45747;-80
2021/10/18 05:03:06;;;;;;;;;24.00;19.75;;;;;;;;4792237;29;46053;-79
2021/10/18 05:05:34;;;;;;;;;26.00;20.67;;;;;;;;4796845;29;45605;-79
2021/10/18 05:08:00;;;;;;;;;21.25;20.00;;;;;;;;4793614;29;45639;-79
2021/10/18 05:10:25;;;;;;;;;22.00;19.50;;;;;;;;4796162;29;45600;-79
2021/10/18 05:12:50;;;;;;;;;20.67;17.33;;;;;;;;4798745;29;45750;-79
2021/10/18 05:15:15;;;;;;;;;19.33;17.33;;;;;;;;4793369;29;45945;-79
2021/10/18 05:17:41;;;;;;;;;25.00;21.00;;;;;;;;4786864;29;46905;-79
2021/10/18 05:20:06;;;;;;;;;23.33;19.33;;;;;;;;4793050;29;45637;-79
2021/10/18 05:22:31;;;;;;;;;23.50;19.50;;;;;;;;4801204;29;45631;-79
2021/10/18 05:24:56;;;;;;;;;24.33;20.33;;;;;;;;4799871;29;101181;-79
2021/10/18 05:27:22;;;;;;;;;26.00;20.00;;;;;;;;4794516;29;45548;-80
2021/10/18 05:29:47;;;;;;;;;35.50;21.75;;;;;;;;4792043;29;440586;-79
2021/10/18 05:32:12;;;;;;;;;23.50;19.50;;;;;;;;4786392;29;483960;-79
2021/10/18 05:34:37;;;;;;;;;24.67;18.33;;;;;;;;4790286;29;229179;-79
2021/10/18 05:37:03;;;;;;;;;22.67;17.00;;;;;;;;4804140;29;45512;-79
2021/10/18 05:39:28;;;;;;;;;25.67;19.00;;;;;;;;4800713;29;44899;-80
2021/10/18 05:41:53;;;;;;;;;20.33;19.33;;;;;;;;4809515;29;45567;-79
2021/10/18 05:44:18;;;;;;;;;19.00;16.67;;;;;;;;4797414;29;46323;-81
2021/10/18 05:46:43;;;;;;;;;21.00;17.33;;;;;;;;4780536;29;46019;-79
2021/10/18 05:49:09;;;;;;;;;22.00;18.33;;;;;;;;4793329;29;46368;-79
2021/10/18 05:51:35;;;;;;;;;26.33;19.00;;;;;;;;4793239;29;45893;-79
2021/10/18 05:54:00;;;;;;;;;27.25;22.00;;;;;;;;4801531;29;45493;-80
2021/10/18 05:56:26;;;;;;;;;22.00;20.00;;;;;;;;4795935;29;45688;-81
2021/10/18 05:58:51;;;;;;;;;24.67;19.67;;;;;;;;4797228;29;45665;-80
2021/10/18 06:01:16;;;;;;;;;18.67;16.00;;;;;;;;4802281;29;49260;-80
2021/10/18 06:03:41;;;;;;;;;23.67;20.33;;;;;;;;4795281;29;57252;-80
2021/10/18 06:06:08;;;;;;;;;28.25;20.25;;;;;;;;4796668;29;45903;-79
2021/10/18 06:08:33;;;;;;;;;27.75;20.50;;;;;;;;4800171;29;46170;-80
2021/10/18 06:10:59;;;;;;;;;22.75;17.75;;;;;;;;4801747;29;45449;-79
2021/10/18 06:18:34;;;;;;;;;42.50;38.00;;;;;;;;5016460;23;28082;-79
2021/10/18 06:20:59;;;;;;;;;42.00;33.33;;;;;;;;4848650;29;28636;-79
2021/10/18 06:23:24;;;;;;;;;48.67;37.67;;;;;;;;4840120;29;60151;-79
2021/10/18 06:25:50;;;;;;;;;45.33;40.33;;;;;;;;4841765;29;38393;-79
2021/10/18 06:28:15;;;;;;;;;42.00;27.50;;;;;;;;4830044;29;45516;-79
2021/10/18 06:30:41;;;;;;;;;42.50;37.50;;;;;;;;4820134;29;45575;-78
2021/10/18 06:33:06;;;;;;;;;33.75;29.00;;;;;;;;4809064;29;45653;-79
2021/10/18 06:35:35;;;;;;;;;45.67;30.00;;;;;;;;5085518;23;46702;-78
2021/10/18 06:40:35;;;;;;;;;28.25;22.75;;;;;;;;5349173;23;45964;-79
2021/10/18 06:43:00;;;;;;;;;33.67;27.00;;;;;;;;4817753;29;65102;-77
2021/10/18 06:45:26;;;;;;;;;29.75;23.25;;;;;;;;4802690;29;44971;-78
2021/10/18 06:47:51;;;;;;;;;28.25;22.25;;;;;;;;4818181;29;46373;-79
2021/10/18 06:50:17;;;;;;;;;31.33;24.00;;;;;;;;4813556;29;48577;-78
2021/10/18 06:52:42;;;;;;;;;28.00;25.75;;;;;;;;4813036;29;45411;-78
2021/10/18 06:55:10;;;;;;;;;24.50;22.00;;;;;;;;4810506;29;45514;-77
2021/10/18 06:57:36;;;;;;;;;33.75;24.25;;;;;;;;4810713;29;45645;-77
2021/10/18 07:00:01;;;;;;;;;46.75;37.25;;;;;;;;4803901;29;120353;-77
2021/10/18 07:02:26;;;;;;;;;38.00;33.00;;;;;;;;4787991;29;45770;-77
2021/10/18 07:04:52;;;;;;;;;56.67;43.67;;;;;;;;4801335;29;45612;-77
2021/10/18 07:07:17;;;;;;;;;35.75;29.75;;;;;;;;4793409;29;101958;-77
2021/10/18 07:09:43;;;;;;;;;39.50;26.75;;;;;;;;4808437;29;55627;-78
2021/10/18 07:12:09;;;;;;;;;39.50;29.75;;;;;;;;4591304;29;2167324;-77
2021/10/18 07:14:34;;;;;;;;;36.25;30.00;;;;;;;;4804797;29;156295;-77
2021/10/18 07:16:59;;;;;;;;;32.25;28.75;;;;;;;;4808292;29;43201;-77
2021/10/18 07:19:24;;;;;;;;;31.00;22.67;;;;;;;;4805485;29;45607;-78
2021/10/18 07:21:50;;;;;;;;;25.33;20.00;;;;;;;;4811912;29;65337;-77
2021/10/18 07:24:20;;;;;;;;;28.00;24.00;;;;;;;;4792522;29;105541;-77
2021/10/18 07:26:50;;;;;;;;;26.00;21.00;;;;;;;;4799320;29;91825;-77
2021/10/18 07:29:20;;;;;;;;;35.00;23.75;;;;;;;;4810972;29;44673;-77
2021/10/18 07:31:45;;;;;;;;;35.00;25.75;;;;;;;;4806700;29;44901;-77
2021/10/18 07:34:15;;;;;;;;;31.00;27.00;;;;;;;;4773723;29;838846;-77
2021/10/18 07:36:51;;;;;;;;;31.50;22.25;;;;;;;;4715056;29;1330328;-77
2021/10/18 07:39:18;;;;;;;;;43.25;36.25;;;;;;;;4752871;29;1011023;-76
2021/10/18 07:41:43;;;;;;;;;33.00;23.75;;;;;;;;4681234;29;1774454;-76
2021/10/18 07:44:08;;;;;;;;;30.00;27.75;;;;;;;;4691128;29;2346130;-76
2021/10/18 07:46:33;;;;;;;;;37.67;28.00;;;;;;;;4780305;29;675862;-76
2021/10/18 07:48:59;;;;;;;;;44.50;36.00;;;;;;;;4657841;29;3322559;-77
2021/10/18 07:51:24;;;;;;;;;30.25;24.50;;;;;;;;4803600;29;79160;-77
2021/10/18 07:53:50;;;;;;;;;38.75;31.75;;;;;;;;4742631;29;995976;-77
2021/10/18 07:56:16;;;;;;;;;27.67;23.33;;;;;;;;4799184;29;30953;-79
2021/10/18 07:58:41;;;;;;;;;38.50;24.75;;;;;;;;4813845;29;51295;-79
2021/10/18 08:01:06;;;;;;;;;31.00;24.33;;;;;;;;4789640;29;884591;-78
2021/10/18 08:03:31;;;;;;;;;27.50;25.75;;;;;;;;4810472;29;89987;-78
2021/10/18 08:05:57;;;;;;;;;26.00;21.67;;;;;;;;4815418;29;88156;-79
2021/10/18 08:08:24;;;;;;;;;23.75;20.25;;;;;;;;4814752;29;28856;-78
2021/10/18 08:10:49;;;;;;;;;29.00;23.25;;;;;;;;4803751;29;264451;-80
2021/10/18 08:13:14;;;;;;;;;28.50;22.50;;;;;;;;4811267;29;44813;-79
2021/10/18 08:15:40;;;;;;;;;29.75;22.75;;;;;;;;4807122;29;45580;-79
2021/10/18 08:18:05;;;;;;;;;29.33;22.67;;;;;;;;4805247;29;46187;-78
2021/10/18 08:20:30;;;;;;;;;27.50;19.25;;;;;;;;4812618;29;45759;-77
2021/10/18 08:22:56;;;;;;;;;29.00;22.75;;;;;;;;4800245;29;45591;-78
2021/10/18 08:25:21;;;;;;;;;27.50;23.00;;;;;;;;4798080;29;45832;-80
2021/10/18 08:27:47;;;;;;;;;24.00;20.00;;;;;;;;4796202;29;45538;-78
2021/10/18 08:30:12;;;;;;;;;30.25;23.25;;;;;;;;4803016;29;47066;-79
2021/10/18 08:32:39;;;;;;;;;26.00;22.50;;;;;;;;4799921;29;45763;-79
2021/10/18 08:35:07;;;;;;;;;24.50;19.50;;;;;;;;4797888;29;46679;-78
2021/10/18 08:40:16;;;;;;;;;27.00;20.50;;;;;;;;4803784;29;45663;-79
2021/10/18 08:45:16;;;;;;;;;25.25;23.25;;;;;;;;4815205;29;41112;-80
2021/10/18 08:47:41;;;;;;;;;29.67;25.33;;;;;;;;4820078;29;45045;-79
2021/10/18 08:50:07;;;;;;;;;31.25;23.50;;;;;;;;4804396;29;229581;-78
2021/10/18 08:52:32;;;;;;;;;24.75;23.75;;;;;;;;4815545;29;45291;-78
2021/10/18 08:54:57;;;;;;;;;30.75;26.25;;;;;;;;4813108;29;45766;-79
2021/10/18 08:57:23;;;;;;;;;26.67;21.67;;;;;;;;4808912;29;41853;-79
2021/10/18 08:59:48;;;;;;;;;27.67;27.00;;;;;;;;4802819;29;43096;-78
2021/10/18 09:02:13;;;;;;;;;28.67;24.33;;;;;;;;4810165;29;30360;-78
2021/10/18 09:04:38;;;;;;;;;32.00;21.00;;;;;;;;4800599;29;34771;-79
2021/10/18 09:07:13;;;;;;;;;29.50;24.25;;;;;;;;4811443;29;45702;-80
2021/10/18 09:09:51;;;;;;;;;30.50;21.25;;;;;;;;4805283;29;45709;-78
2021/10/18 09:12:22;;;;;;;;;31.75;21.00;;;;;;;;4808916;29;28638;-79
2021/10/18 09:14:48;;;;;;;;;28.50;23.25;;;;;;;;4804401;29;30029;-77
2021/10/18 09:17:13;;;;;;;;;29.67;22.00;;;;;;;;4800670;29;105287;-78
2021/10/18 09:19:38;;;;;;;;;27.33;19.00;;;;;;;;4796640;29;323957;-78
2021/10/18 09:22:08;;;;;;;;;30.33;23.33;;;;;;;;4786117;29;231980;-78
2021/10/18 09:24:33;;;;;;;;;32.50;23.25;;;;;;;;4721980;29;1636917;-78
2021/10/18 09:27:00;;;;;;;;;25.75;24.25;;;;;;;;4485762;29;5386550;-78
2021/10/18 09:29:39;;;;;;;;;29.67;25.67;;;;;;;;4620657;29;4528464;-79
2021/10/18 09:32:05;;;;;;;;;22.50;21.75;;;;;;;;4814473;29;75741;-78
2021/10/18 09:34:32;;;;;;;;;23.00;20.75;;;;;;;;4810406;29;42975;-79
2021/10/18 09:37:17;;;;;;;;;25.50;22.25;;;;;;;;4620516;29;3597841;-79
2021/10/18 09:39:46;;;;;;;;;26.50;22.00;;;;;;;;4810529;29;28651;-78
2021/10/18 09:42:13;;;;;;;;;23.50;21.75;;;;;;;;4811442;29;28635;-78
2021/10/18 10:51:58;;;;;;;;;25.50;19.25;;;;;;;;4814919;29;52698;-77
2021/10/18 10:54:33;;;;;;;;;20.75;19.00;;;;;;;;4811483;29;58117;-77
2021/10/18 10:57:03;;;;;;;;;29.25;19.25;;;;;;;;4813247;29;47492;-77
2021/10/18 10:59:30;;;;;;;;;20.50;16.50;;;;;;;;4812440;29;45622;-77
2021/10/18 11:02:03;;;;;;;;;32.25;24.25;;;;;;;;4801223;29;168125;-77
2021/10/18 11:04:28;;;;;;;;;21.75;19.25;;;;;;;;4801081;29;134152;-77
2021/10/18 11:06:54;;;;;;;;;23.67;20.67;;;;;;;;4798274;29;47439;-77
2021/10/18 11:09:38;;;;;;;;;22.33;17.67;;;;;;;;4809533;29;45307;-77
2021/10/18 11:12:03;;;;;;;;;24.25;20.00;;;;;;;;4814441;29;45590;-77
2021/10/18 11:14:29;;;;;;;;;18.00;18.00;;;;;;;;4814519;29;45564;-77
2021/10/18 11:16:54;;;;;;;;;19.75;18.75;;;;;;;;4271118;29;7746949;-77
2021/10/18 11:19:22;;;;;;;;;20.75;20.75;;;;;;;;4775847;29;909089;-77
2021/10/18 11:21:57;;;;;;;;;21.25;19.00;;;;;;;;4761608;29;768699;-77
2021/10/18 11:24:23;;;;;;;;;19.75;19.75;;;;;;;;4736213;29;1896619;-77
2021/10/18 11:26:52;;;;;;;;;22.25;19.50;;;;;;;;4737232;29;2155921;-78
2021/10/18 11:29:17;;;;;;;;;20.75;16.75;;;;;;;;4739647;29;1766716;-77
2021/10/18 11:31:44;;;;;;;;;20.00;18.25;;;;;;;;4817064;29;142404;-77
2021/10/18 11:34:13;;;;;;;;;22.75;18.25;;;;;;;;4824040;29;38498;-77
2021/10/18 11:36:49;;;;;;;;;20.75;17.50;;;;;;;;4807533;29;202549;-77
2021/10/18 11:39:22;;;;;;;;;20.00;17.50;;;;;;;;4814208;29;36020;-77
2021/10/18 11:42:04;;;;;;;;;27.00;21.00;;;;;;;;4819845;29;43883;-77
2021/10/18 11:44:41;;;;;;;;;21.25;16.75;;;;;;;;4813197;29;64759;-77
2021/10/18 11:47:27;;;;;;;;;18.25;17.00;;;;;;;;4811543;29;361930;-77
2021/10/18 11:50:11;;;;;;;;;26.25;18.50;;;;;;;;4783210;29;580063;-77
2021/10/18 11:52:50;;;;;;;;;18.50;14.50;;;;;;;;4789309;29;828619;-77
2021/10/18 11:55:17;;;;;;;;;25.00;19.75;;;;;;;;4816243;29;43192;-80
2021/10/18 11:57:43;;;;;;;;;20.00;18.25;;;;;;;;4825391;29;76847;-79
2021/10/18 12:00:13;;;;;;;;;21.25;18.75;;;;;;;;4807486;29;45546;-79
2021/10/18 12:02:42;;;;;;;;;19.00;14.75;;;;;;;;4825270;29;115777;-79
2021/10/18 12:05:08;;;;;;;;;22.00;15.25;;;;;;;;4816385;29;80181;-79
2021/10/18 12:07:37;;;;;;;;;18.75;17.00;;;;;;;;4813450;29;94097;-78
2021/10/18 12:10:11;;;;;;;;;22.75;16.25;;;;;;;;4824431;29;44966;-79
2021/10/18 12:12:36;;;;;;;;;20.25;17.00;;;;;;;;4789855;29;639642;-78
2021/10/18 12:15:02;;;;;;;;;23.00;20.75;;;;;;;;4818369;29;39198;-79
2021/10/18 12:17:29;;;;;;;;;19.50;16.25;;;;;;;;4825011;29;48302;-79
2021/10/18 12:19:54;;;;;;;;;21.75;17.75;;;;;;;;4821983;29;28725;-79
2021/10/18 12:22:20;;;;;;;;;19.50;17.50;;;;;;;;4812502;29;127587;-79
2021/10/18 12:24:58;;;;;;;;;22.25;16.50;;;;;;;;4810781;29;113280;-79
2021/10/18 12:27:28;;;;;;;;;19.50;16.00;;;;;;;;4679787;29;2492155;-79
2021/10/18 12:29:53;;;;;;;;;21.25;18.25;;;;;;;;4822635;29;45463;-79
2021/10/18 12:32:18;;;;;;;;;18.50;16.50;;;;;;;;4818852;29;45462;-79
2021/10/18 12:34:44;;;;;;;;;17.75;17.75;;;;;;;;4821653;29;42356;-79
2021/10/18 12:37:13;;;;;;;;;19.75;17.50;;;;;;;;4808077;29;272138;-80
2021/10/18 12:39:38;;;;;;;;;19.00;18.25;;;;;;;;4813603;29;98094;-78
2021/10/18 12:42:05;;;;;;;;;18.00;17.00;;;;;;;;4827817;29;98081;-79
2021/10/18 12:44:30;;;;;;;;;32.25;21.00;;;;;;;;4810281;29;43008;-79
2021/10/18 12:46:55;;;;;;;;;16.50;14.50;;;;;;;;4822823;29;28962;-80
2021/10/18 12:49:27;;;;;;;;;20.50;17.25;;;;;;;;4795181;29;160830;-79
2021/10/18 12:51:52;;;;;;;;;22.75;20.50;;;;;;;;4811584;29;128127;-79
2021/10/18 12:54:21;;;;;;;;;28.67;19.00;;;;;;;;4798487;29;308718;-77
2021/10/18 12:56:56;;;;;;;;;19.75;17.50;;;;;;;;4831269;29;45796;-77
2021/10/18 12:59:21;;;;;;;;;25.00;20.00;;;;;;;;4718443;29;2508489;-77
2021/10/18 13:01:47;;;;;;;;;19.75;16.25;;;;;;;;4757921;29;940607;-77
2021/10/18 13:04:16;;;;;;;;;21.75;18.00;;;;;;;;4813272;29;44769;-77
2021/10/18 13:06:41;;;;;;;;;23.25;16.50;;;;;;;;4808696;29;44882;-77
2021/10/18 13:09:06;;;;;;;;;18.67;17.00;;;;;;;;4818917;29;188295;-77
2021/10/18 13:11:31;;;;;;;;;21.00;16.00;;;;;;;;4821571;29;45860;-77
2021/10/18 13:13:57;;;;;;;;;21.00;17.33;;;;;;;;4814821;29;45301;-77
2021/10/18 13:16:23;;;;;;;;;18.75;14.75;;;;;;;;4822782;29;44851;-77
2021/10/18 13:18:49;;;;;;;;;18.00;16.25;;;;;;;;4813710;29;46002;-77
2021/10/18 13:21:14;;;;;;;;;21.50;19.75;;;;;;;;4823609;29;44959;-78
2021/10/18 13:23:40;;;;;;;;;16.33;16.00;;;;;;;;4761847;29;1825522;-77
2021/10/18 13:26:05;;;;;;;;;20.00;19.00;;;;;;;;4818087;29;45684;-75
2021/10/18 13:28:30;;;;;;;;;19.00;15.33;;;;;;;;4808206;29;45714;-76
2021/10/18 13:30:56;;;;;;;;;19.67;19.00;;;;;;;;4812586;29;45602;-76
2021/10/18 13:33:22;;;;;;;;;17.75;17.00;;;;;;;;4820574;29;31499;-77
2021/10/18 13:35:47;;;;;;;;;21.75;17.75;;;;;;;;4818868;29;28934;-77
2021/10/18 13:38:12;;;;;;;;;17.25;16.25;;;;;;;;4819150;29;38478;-77
2021/10/18 13:40:39;;;;;;;;;15.00;11.25;;;;;;;;4785908;29;467103;-78
2021/10/18 13:43:06;;;;;;;;;24.25;17.50;;;;;;;;4804181;24;512038;-77
2021/10/18 13:45:32;;;;;;;;;17.75;17.00;;;;;;;;4794038;29;451094;-77
2021/10/18 13:47:57;;;;;;;;;18.25;15.75;;;;;;;;4424369;29;5895857;-77
2021/10/18 13:50:23;;;;;;;;;16.25;13.50;;;;;;;;4778683;29;556240;-76
2021/10/18 13:52:52;;;;;;;;;20.25;18.25;;;;;;;;4817384;29;279848;-80
2021/10/18 13:55:18;;;;;;;;;16.00;14.50;;;;;;;;4926877;24;39037;-79
2021/10/18 14:02:53;;;;;;;;;18.50;16.00;;;;;;;;5385717;23;101368;-79
2021/10/18 14:05:18;;;;;;;;;17.67;14.00;;;;;;;;4814702;29;101104;-77
2021/10/18 14:07:45;;;;;;;;;17.00;16.00;;;;;;;;4804380;29;47820;-80
2021/10/18 14:10:11;;;;;;;;;17.75;17.75;;;;;;;;4800636;29;46411;-78
2021/10/18 14:12:37;;;;;;;;;51.00;37.75;;;;;;;;4800441;29;46073;-78
2021/10/18 14:15:02;;;;;;;;;69.75;54.25;;;;;;;;4786720;29;59258;-76
2021/10/18 14:17:28;;;;;;;;;107.50;94.25;;;;;;;;4787999;29;114065;-81
2021/10/18 14:19:54;;;;;;;;;72.25;51.50;;;;;;;;4808011;29;45996;-79
2021/10/18 14:22:21;;;;;;;;;59.75;46.00;;;;;;;;4805643;29;150467;-81
2021/10/18 14:24:46;;;;;;;;;34.25;29.25;;;;;;;;4800540;29;264317;-80
2021/10/18 14:27:11;;;;;;;;;24.00;21.75;;;;;;;;4798119;29;45536;-79
2021/10/18 14:29:37;;;;;;;;;23.67;22.00;;;;;;;;4813379;29;44676;-79
2021/10/18 14:32:02;;;;;;;;;19.00;19.00;;;;;;;;4801288;29;144512;-80
2021/10/18 14:34:28;;;;;;;;;20.25;17.00;;;;;;;;4809082;29;42535;-79
2021/10/18 14:36:53;;;;;;;;;16.00;15.75;;;;;;;;4803477;29;46537;-80
2021/10/18 14:39:19;;;;;;;;;16.00;14.75;;;;;;;;4805309;29;33816;-79
2021/10/18 14:41:48;;;;;;;;;19.25;17.00;;;;;;;;4798937;29;45945;-79
2021/10/18 14:44:15;;;;;;;;;13.50;13.50;;;;;;;;4796496;29;40288;-79
2021/10/18 14:46:40;;;;;;;;;18.25;11.75;;;;;;;;4778423;29;715292;-79
2021/10/18 14:49:05;;;;;;;;;15.25;13.25;;;;;;;;4794587;29;138473;-79
2021/10/18 14:51:31;;;;;;;;;15.75;15.75;;;;;;;;4647649;29;2416908;-79
2021/10/18 14:53:58;;;;;;;;;11.00;9.00;;;;;;;;4782813;29;504130;-81
2021/10/18 14:56:24;;;;;;;;;12.00;12.00;;;;;;;;4574405;29;3927080;-79
2021/10/18 14:58:50;;;;;;;;;14.25;12.00;;;;;;;;4741489;29;768782;-79
2021/10/18 15:01:15;;;;;;;;;12.50;12.50;;;;;;;;4783448;29;328885;-79
2021/10/18 15:03:41;;;;;;;;;18.25;11.25;;;;;;;;4435816;29;9176907;-78
2021/10/18 15:06:10;;;;;;;;;10.50;10.50;;;;;;;;4718329;29;1331255;-78
2021/10/18 15:08:35;;;;;;;;;8.75;8.75;;;;;;;;4815634;29;29501;-78
2021/10/18 15:11:01;;;;;;;;;11.00;10.00;;;;;;;;4769224;29;701662;-78
2021/10/18 15:13:27;;;;;;;;;10.00;9.25;;;;;;;;4356428;29;3458854;-78
2021/10/18 15:15:52;;;;;;;;;10.25;9.75;;;;;;;;4729012;29;1902637;-78
2021/10/18 15:18:17;;;;;;;;;9.33;9.33;;;;;;;;4783962;29;598194;-78
2021/10/18 15:20:43;;;;;;;;;14.00;10.25;;;;;;;;4358769;29;3008080;-79
2021/10/18 15:23:08;;;;;;;;;16.33;11.00;;;;;;;;4657154;29;2116447;-78
2021/10/18 15:25:33;;;;;;;;;9.67;8.00;;;;;;;;4491835;29;2874856;-78
2021/10/18 15:27:59;;;;;;;;;13.25;10.00;;;;;;;;4709524;29;1404680;-78
2021/10/18 15:30:24;;;;;;;;;10.50;9.00;;;;;;;;4669946;29;1201228;-78
2021/10/18 15:32:49;;;;;;;;;9.00;8.25;;;;;;;;4281490;29;5784054;-78
2021/10/18 15:35:14;;;;;;;;;11.50;11.00;;;;;;;;4758378;29;627481;-78
2021/10/18 15:37:40;;;;;;;;;9.25;8.00;;;;;;;;4776215;29;686918;-78